Time;durP1;ratioP1;P1;durP2;ratioP2;P2;SDS_P1;SDS_P2;PMS_P1;PMS_P2;Temp;Humidity;BMP_temperature;BMP_pressure;BME280_temperature;BME280_humidity;BME280_pressure;Samples;Min_cycle;Max_cycle;Signal;HPM_P1;HPM_P2
2023/04/19 00:01:32;;;;;;;1.55;1.35;;;21.30;68.60;;;;;;5054014;28;20252;-62
2023/04/19 00:03:59;;;;;;;1.45;1.20;;;21.30;68.60;;;;;;5061297;28;20186;-62
2023/04/19 00:06:29;;;;;;;2.13;1.92;;;21.30;68.60;;;;;;5063290;28;20195;-62
2023/04/19 00:08:56;;;;;;;1.70;1.60;;;21.30;68.60;;;;;;5060469;28;20195;-62
2023/04/19 00:11:22;;;;;;;1.92;1.80;;;21.30;68.60;;;;;;5055489;28;20264;-62
2023/04/19 00:13:49;;;;;;;1.80;1.70;;;21.30;68.60;;;;;;5055789;28;20191;-62
2023/04/19 00:16:16;;;;;;;2.22;1.77;;;21.20;68.50;;;;;;5052045;28;20663;-62
2023/04/19 00:18:45;;;;;;;1.60;1.50;;;21.20;68.60;;;;;;5050824;28;20820;-62
2023/04/19 00:21:12;;;;;;;1.70;1.27;;;21.20;68.50;;;;;;5053542;28;20206;-62
2023/04/19 00:23:38;;;;;;;2.00;1.90;;;21.20;68.60;;;;;;5054065;28;20222;-62
2023/04/19 00:26:05;;;;;;;1.88;1.70;;;21.20;68.60;;;;;;5051071;28;20249;-62
2023/04/19 00:28:33;;;;;;;1.33;1.20;;;21.20;68.60;;;;;;5051307;28;20563;-62
2023/04/19 00:31:00;;;;;;;2.63;1.40;;;21.20;68.60;;;;;;5049868;28;20541;-62
2023/04/19 00:33:27;;;;;;;1.52;1.42;;;21.10;68.50;;;;;;5050710;28;20575;-62
2023/04/19 00:35:55;;;;;;;1.42;1.33;;;21.20;68.70;;;;;;5055551;28;20220;-62
2023/04/19 00:38:21;;;;;;;1.48;1.30;;;21.10;68.50;;;;;;5054608;28;20218;-62
2023/04/19 00:40:48;;;;;;;1.77;1.67;;;21.10;68.60;;;;;;5055231;28;20198;-61
2023/04/19 00:43:18;;;;;;;1.55;1.45;;;21.10;68.50;;;;;;5057110;28;20206;-62
2023/04/19 00:45:45;;;;;;;1.35;1.20;;;21.10;68.60;;;;;;5052313;28;20286;-62
2023/04/19 00:48:11;;;;;;;1.30;1.20;;;21.10;68.60;;;;;;5047849;28;20215;-62
2023/04/19 00:50:38;;;;;;;1.60;1.50;;;21.10;68.70;;;;;;5044361;28;20620;-62
2023/04/19 00:53:08;;;;;;;1.83;1.70;;;21.00;68.50;;;;;;5049341;28;20191;-60
2023/04/19 00:55:34;;;;;;;2.33;1.80;;;21.00;68.50;;;;;;5049694;28;20598;-62
2023/04/19 00:58:02;;;;;;;1.40;1.30;;;21.00;68.40;;;;;;5045497;28;20234;-61
2023/04/19 01:00:29;;;;;;;1.70;1.60;;;21.00;68.50;;;;;;5055869;28;20210;-62
2023/04/19 01:02:55;;;;;;;1.40;1.30;;;21.00;68.40;;;;;;5054024;28;20202;-61
2023/04/19 01:05:22;;;;;;;1.55;1.23;;;21.00;68.50;;;;;;5054623;28;20199;-62
2023/04/19 01:07:50;;;;;;;1.30;1.20;;;21.00;68.60;;;;;;5050786;28;20609;-62
2023/04/19 01:10:18;;;;;;;1.58;1.48;;;21.00;68.50;;;;;;5059279;28;20294;-60
2023/04/19 01:12:45;;;;;;;1.63;1.45;;;21.00;68.50;;;;;;5052568;28;21949;-62
2023/04/19 01:15:12;;;;;;;1.70;1.58;;;21.00;68.50;;;;;;5044127;28;21664;-60
2023/04/19 01:17:39;;;;;;;1.80;1.70;;;20.90;68.30;;;;;;5040946;28;20833;-61
2023/04/19 01:20:07;;;;;;;1.40;1.30;;;20.90;68.40;;;;;;5041735;28;20203;-60
2023/04/19 01:22:36;;;;;;;1.40;1.30;;;20.90;68.40;;;;;;5042831;28;20582;-62
2023/04/19 01:25:04;;;;;;;1.80;1.50;;;20.90;69.30;;;;;;5060718;28;20227;-62
2023/04/19 01:27:31;;;;;;;1.50;1.40;;;20.90;68.40;;;;;;5054766;28;20728;-62
2023/04/19 01:29:57;;;;;;;1.75;1.40;;;20.90;68.40;;;;;;5048549;28;20551;-61
2023/04/19 01:32:25;;;;;;;1.70;1.55;;;20.90;68.40;;;;;;5051633;28;20202;-61
2023/04/19 01:34:52;;;;;;;1.30;1.20;;;20.90;68.40;;;;;;5055643;28;20202;-62
2023/04/19 01:37:19;;;;;;;1.80;1.65;;;20.90;68.40;;;;;;5052000;28;20208;-61
2023/04/19 01:39:47;;;;;;;1.50;1.40;;;20.90;68.50;;;;;;5045202;28;20227;-62
2023/04/19 01:42:13;;;;;;;1.23;1.13;;;20.90;68.50;;;;;;5043529;28;20196;-61
2023/04/19 01:44:40;;;;;;;1.60;1.50;;;20.90;68.50;;;;;;5046426;28;20202;-61
2023/04/19 01:47:08;;;;;;;1.52;1.42;;;20.90;68.50;;;;;;5041333;28;20203;-61
2023/04/19 01:49:34;;;;;;;1.50;1.40;;;20.80;68.50;;;;;;5048014;28;20689;-62
2023/04/19 01:52:01;;;;;;;1.58;1.40;;;20.80;68.40;;;;;;5049534;28;20195;-61
2023/04/19 01:54:28;;;;;;;1.40;1.30;;;20.80;68.50;;;;;;5044403;28;20222;-61
2023/04/19 01:56:56;;;;;;;1.45;1.35;;;20.80;68.50;;;;;;5047641;28;20195;-62
2023/04/19 01:59:23;;;;;;;1.98;1.40;;;20.80;68.50;;;;;;5044783;28;20226;-61
2023/04/19 02:01:49;;;;;;;1.52;1.42;;;20.80;68.50;;;;;;5053618;28;20194;-61
2023/04/19 02:04:16;;;;;;;1.30;1.20;;;20.80;68.50;;;;;;5060940;28;20197;-61
2023/04/19 02:06:43;;;;;;;1.50;1.33;;;20.70;68.40;;;;;;5054586;28;20678;-60
2023/04/19 02:09:09;;;;;;;3.10;2.10;;;20.80;68.70;;;;;;5061055;28;20226;-62
2023/04/19 02:11:36;;;;;;;1.70;1.60;;;20.70;68.40;;;;;;5052592;28;20198;-61
2023/04/19 02:14:04;;;;;;;1.40;1.30;;;20.70;68.50;;;;;;5060123;28;20240;-62
2023/04/19 02:16:31;;;;;;;1.65;1.42;;;20.70;68.50;;;;;;5053155;28;20731;-61
2023/04/19 02:18:57;;;;;;;1.35;1.25;;;20.70;68.50;;;;;;5051290;28;20230;-60
2023/04/19 02:21:24;;;;;;;2.03;1.60;;;20.70;68.50;;;;;;5049163;28;20195;-61
2023/04/19 02:23:51;;;;;;;1.35;1.20;;;20.70;68.50;;;;;;5057466;28;20244;-62
2023/04/19 02:26:19;;;;;;;1.35;1.25;;;20.70;68.50;;;;;;5047688;28;20670;-62
2023/04/19 02:28:45;;;;;;;1.55;1.45;;;20.70;68.50;;;;;;5057274;28;20223;-61
2023/04/19 02:31:13;;;;;;;1.50;1.40;;;20.70;68.50;;;;;;5048478;28;20200;-62
2023/04/19 02:33:40;;;;;;;1.42;1.33;;;20.70;68.40;;;;;;5057059;28;20197;-61
2023/04/19 02:36:08;;;;;;;1.42;1.33;;;20.70;68.50;;;;;;5049864;28;20471;-61
2023/04/19 02:38:34;;;;;;;1.52;1.42;;;20.70;68.50;;;;;;5050165;28;20222;-60
2023/04/19 02:41:03;;;;;;;1.35;1.25;;;20.60;68.40;;;;;;5051887;28;20195;-61
2023/04/19 02:43:29;;;;;;;1.30;1.20;;;20.60;69.20;;;;;;5065422;28;20279;-61
2023/04/19 02:45:56;;;;;;;1.50;1.40;;;20.60;68.40;;;;;;5055459;28;20234;-61
2023/04/19 02:48:24;;;;;;;1.30;1.20;;;20.60;68.40;;;;;;5049780;28;20199;-62
2023/04/19 02:50:51;;;;;;;1.45;1.20;;;20.60;68.50;;;;;;5056461;28;20200;-61
2023/04/19 02:53:18;;;;;;;1.60;1.50;;;20.60;68.50;;;;;;5057087;28;20199;-61
2023/04/19 02:55:45;;;;;;;2.20;2.10;;;20.60;68.40;;;;;;5055484;28;20606;-62
2023/04/19 02:58:12;;;;;;;1.38;1.27;;;20.60;68.40;;;;;;5063128;28;20204;-62
2023/04/19 03:00:39;;;;;;;1.73;1.63;;;20.60;68.50;;;;;;5055737;28;20203;-61
2023/04/19 03:03:06;;;;;;;1.40;1.30;;;20.60;68.40;;;;;;5054335;28;20269;-62
2023/04/19 03:05:34;;;;;;;1.58;1.48;;;20.60;68.40;;;;;;5062056;28;20795;-61
2023/04/19 03:08:01;;;;;;;1.55;1.45;;;20.50;68.30;;;;;;5050658;28;20233;-61
2023/04/19 03:10:28;;;;;;;1.42;1.30;;;20.60;68.50;;;;;;5053011;28;20199;-61
2023/04/19 03:12:54;;;;;;;1.40;1.20;;;20.50;68.30;;;;;;5061467;28;20528;-62
2023/04/19 03:15:21;;;;;;;1.52;1.33;;;20.50;68.30;;;;;;5056323;28;20630;-63
2023/04/19 03:17:48;;;;;;;1.60;1.50;;;20.50;68.30;;;;;;5057392;28;20675;-63
2023/04/19 03:20:15;;;;;;;2.70;1.20;;;20.50;68.30;;;;;;5051125;28;20631;-62
2023/04/19 03:22:44;;;;;;;1.48;1.33;;;20.50;68.20;;;;;;5056883;28;20227;-63
2023/04/19 03:25:12;;;;;;;1.70;1.60;;;20.50;68.30;;;;;;5054629;28;20195;-62
2023/04/19 03:27:39;;;;;;;1.70;1.60;;;20.50;68.30;;;;;;5044422;28;20605;-63
2023/04/19 03:30:08;;;;;;;3.30;1.30;;;20.50;68.40;;;;;;5045304;28;20632;-63
2023/04/19 03:32:35;;;;;;;1.70;1.42;;;20.50;68.40;;;;;;5046748;28;20202;-62
2023/04/19 03:35:02;;;;;;;1.95;1.20;;;20.50;68.30;;;;;;5046458;28;20199;-62
2023/04/19 03:37:29;;;;;;;1.30;1.10;;;20.50;68.30;;;;;;5064100;28;20198;-62
2023/04/19 03:39:57;;;;;;;1.80;1.70;;;20.50;68.40;;;;;;5058290;28;20687;-63
2023/04/19 03:42:23;;;;;;;1.75;1.58;;;20.40;68.20;;;;;;5049093;28;20192;-62
2023/04/19 03:44:50;;;;;;;1.85;1.75;;;20.40;68.20;;;;;;5058719;28;20279;-62
2023/04/19 03:47:17;;;;;;;1.48;1.38;;;20.40;68.20;;;;;;5046934;28;20496;-62
2023/04/19 03:49:44;;;;;;;1.70;1.60;;;20.40;68.20;;;;;;5046407;28;20202;-63
2023/04/19 03:52:10;;;;;;;1.20;1.10;;;20.40;68.20;;;;;;5068279;28;20191;-63
2023/04/19 03:54:37;;;;;;;1.50;1.40;;;20.40;68.40;;;;;;5053867;28;20195;-62
2023/04/19 03:57:05;;;;;;;1.80;1.70;;;20.40;68.20;;;;;;5062172;28;20191;-63
2023/04/19 03:59:32;;;;;;;1.73;1.50;;;20.40;68.40;;;;;;5048765;28;20223;-62
2023/04/19 04:01:58;;;;;;;1.30;1.20;;;20.40;68.30;;;;;;5045039;28;22101;-63
2023/04/19 04:04:25;;;;;;;1.63;1.50;;;20.40;68.30;;;;;;5056063;28;20202;-62
2023/04/19 04:06:52;;;;;;;1.42;1.33;;;20.40;68.30;;;;;;5055140;28;20195;-63
2023/04/19 04:09:18;;;;;;;1.60;1.40;;;20.40;68.40;;;;;;5043980;28;20207;-62
2023/04/19 04:11:45;;;;;;;1.70;1.60;;;20.40;68.40;;;;;;5059235;28;20610;-62
2023/04/19 04:14:13;;;;;;;1.80;1.60;;;20.40;69.10;;;;;;5052308;28;20200;-62
2023/04/19 04:16:40;;;;;;;1.52;1.42;;;20.40;68.40;;;;;;5057024;28;20385;-62
2023/04/19 04:19:07;;;;;;;1.30;1.20;;;20.40;68.40;;;;;;5063012;28;20232;-63
2023/04/19 04:21:33;;;;;;;1.30;1.15;;;20.40;68.50;;;;;;5058021;28;20272;-62
2023/04/19 04:24:02;;;;;;;1.70;1.40;;;20.40;68.40;;;;;;5058986;28;20203;-63
2023/04/19 04:26:30;;;;;;;1.65;1.55;;;20.30;68.40;;;;;;5050446;28;20204;-63
2023/04/19 04:28:57;;;;;;;1.42;1.33;;;20.30;68.30;;;;;;5054560;28;20207;-62
2023/04/19 04:31:25;;;;;;;1.45;1.35;;;20.30;68.40;;;;;;5050683;28;20195;-60
2023/04/19 04:33:52;;;;;;;1.38;1.27;;;20.30;68.40;;;;;;5057273;28;20227;-62
2023/04/19 04:36:19;;;;;;;1.40;1.30;;;20.40;68.50;;;;;;5051966;28;20215;-62
2023/04/19 04:38:46;;;;;;;1.58;1.48;;;20.30;68.40;;;;;;5055395;28;20273;-63
2023/04/19 04:41:12;;;;;;;1.48;1.38;;;20.30;68.40;;;;;;5066971;28;20198;-62
2023/04/19 04:43:39;;;;;;;1.50;1.40;;;20.30;68.40;;;;;;5047069;28;20848;-62
2023/04/19 04:46:06;;;;;;;1.90;1.30;;;20.30;68.40;;;;;;5048853;28;20192;-62
2023/04/19 04:48:34;;;;;;;1.55;1.45;;;20.30;68.40;;;;;;5053491;28;20260;-62
2023/04/19 04:51:00;;;;;;;1.75;1.65;;;20.30;68.40;;;;;;5055577;28;20245;-63
2023/04/19 04:53:28;;;;;;;1.30;1.20;;;20.30;68.30;;;;;;5049384;28;20622;-62
2023/04/19 04:55:54;;;;;;;1.80;1.70;;;20.30;68.40;;;;;;5044000;28;20469;-60
2023/04/19 04:58:21;;;;;;;1.48;1.38;;;20.30;68.40;;;;;;5049885;28;20191;-61
2023/04/19 05:00:48;;;;;;;2.20;1.70;;;20.30;68.40;;;;;;5041847;28;20261;-60
2023/04/19 05:03:15;;;;;;;1.30;1.20;;;20.30;68.40;;;;;;5045881;28;20202;-60
2023/04/19 05:05:43;;;;;;;1.77;1.38;;;20.30;68.40;;;;;;5055288;28;20200;-62
2023/04/19 05:08:10;;;;;;;2.10;1.63;;;20.30;68.40;;;;;;5050177;28;20192;-62
2023/04/19 05:10:36;;;;;;;1.60;1.50;;;20.30;68.30;;;;;;5049136;28;20201;-61
2023/04/19 05:13:03;;;;;;;1.60;1.50;;;20.20;68.20;;;;;;5057289;28;20202;-63
2023/04/19 05:15:30;;;;;;;2.10;1.30;;;20.30;68.30;;;;;;5054034;28;20207;-63
2023/04/19 05:17:56;;;;;;;1.95;1.75;;;20.20;68.40;;;;;;5052329;28;20206;-63
2023/04/19 05:20:23;;;;;;;1.30;1.20;;;20.20;68.50;;;;;;5048844;28;20215;-62
2023/04/19 05:22:56;;;;;;;2.10;2.00;;;20.30;68.50;;;;;;5057745;28;20224;-62
2023/04/19 05:25:22;;;;;;;1.40;1.17;;;20.30;68.50;;;;;;5058928;28;20202;-63
2023/04/19 05:27:49;;;;;;;1.75;1.20;;;20.40;68.60;;;;;;5051997;28;20238;-63
2023/04/19 05:30:16;;;;;;;1.30;1.20;;;20.40;68.60;;;;;;5046799;28;20207;-62
2023/04/19 05:32:43;;;;;;;1.30;1.20;;;20.40;68.50;;;;;;5052480;28;20199;-62
2023/04/19 05:35:10;;;;;;;1.60;1.50;;;20.40;68.50;;;;;;5065093;28;20221;-63
2023/04/19 05:37:38;;;;;;;1.40;1.30;;;20.40;68.50;;;;;;5055354;28;20285;-62
2023/04/19 05:40:08;;;;;;;1.30;1.20;;;20.50;68.60;;;;;;5051607;28;20218;-63
2023/04/19 05:42:35;;;;;;;1.27;1.17;;;20.50;68.50;;;;;;5059574;28;20198;-63
2023/04/19 05:45:02;;;;;;;1.48;1.38;;;20.50;68.50;;;;;;5048367;28;20203;-62
2023/04/19 05:47:29;;;;;;;1.50;1.40;;;20.50;68.50;;;;;;5055450;28;20205;-63
2023/04/19 05:49:55;;;;;;;1.20;1.10;;;20.50;68.50;;;;;;5049747;28;20256;-62
2023/04/19 05:52:22;;;;;;;1.63;1.50;;;20.50;68.50;;;;;;5049684;28;20252;-62
2023/04/19 05:54:49;;;;;;;1.65;1.55;;;20.50;68.40;;;;;;5049894;28;20615;-60
2023/04/19 05:57:17;;;;;;;1.30;1.20;;;20.50;68.40;;;;;;5062461;28;20581;-62
2023/04/19 05:59:43;;;;;;;2.40;1.20;;;20.50;68.40;;;;;;5045297;28;20222;-61
2023/04/19 06:02:10;;;;;;;2.42;1.40;;;20.50;68.30;;;;;;5048004;28;20249;-61
2023/04/19 06:04:37;;;;;;;1.50;1.40;;;20.50;68.30;;;;;;5053904;28;20285;-61
2023/04/19 06:07:03;;;;;;;1.58;1.45;;;20.60;68.40;;;;;;5049258;28;20195;-61
2023/04/19 06:09:30;;;;;;;1.52;1.42;;;20.60;68.40;;;;;;5047398;28;20617;-62
2023/04/19 06:11:57;;;;;;;1.50;1.40;;;20.60;68.50;;;;;;5046601;28;20198;-62
2023/04/19 06:14:28;;;;;;;2.65;1.50;;;20.70;68.50;;;;;;5049300;28;20578;-62
2023/04/19 06:16:55;;;;;;;1.67;1.55;;;20.70;68.50;;;;;;5059007;28;20578;-61
2023/04/19 06:19:22;;;;;;;1.42;1.30;;;20.70;68.50;;;;;;5056480;28;20227;-62
2023/04/19 06:21:49;;;;;;;1.67;1.35;;;20.80;68.60;;;;;;5049577;28;20218;-61
2023/04/19 06:24:15;;;;;;;1.33;1.23;;;20.80;68.60;;;;;;5054357;28;20198;-62
2023/04/19 06:26:42;;;;;;;1.50;1.40;;;20.80;68.50;;;;;;5057592;28;20618;-62
2023/04/19 06:29:09;;;;;;;1.25;1.15;;;20.90;68.60;;;;;;5053556;28;20221;-61
2023/04/19 06:31:37;;;;;;;1.70;1.60;;;20.90;68.50;;;;;;5057794;28;20203;-62
2023/04/19 06:34:03;;;;;;;1.20;1.08;;;20.90;68.50;;;;;;5062318;28;20191;-62
2023/04/19 06:36:30;;;;;;;1.30;1.20;;;20.90;68.40;;;;;;5059341;28;20604;-62
2023/04/19 06:38:57;;;;;;;1.30;1.20;;;21.00;68.50;;;;;;5055634;28;20223;-61
2023/04/19 06:41:24;;;;;;;1.20;1.10;;;21.00;68.50;;;;;;5052082;28;20222;-62
2023/04/19 06:43:51;;;;;;;1.50;1.40;;;21.00;68.50;;;;;;5066417;28;20233;-62
2023/04/19 06:46:18;;;;;;;1.40;1.20;;;21.00;68.40;;;;;;5046072;28;20195;-62
2023/04/19 06:48:46;;;;;;;1.20;1.10;;;21.00;68.50;;;;;;5044410;28;20191;-62
2023/04/19 06:51:12;;;;;;;1.38;1.27;;;21.00;68.30;;;;;;5054307;28;20259;-62
2023/04/19 06:53:39;;;;;;;1.55;1.45;;;21.10;68.50;;;;;;5053258;28;20600;-62
2023/04/19 06:56:07;;;;;;;1.73;1.30;;;21.10;68.40;;;;;;5054080;28;20198;-62
2023/04/19 06:58:33;;;;;;;1.80;1.70;;;21.10;68.40;;;;;;5058091;28;20203;-62
2023/04/19 07:01:00;;;;;;;2.22;1.20;;;21.10;68.40;;;;;;5052287;28;20219;-63
2023/04/19 07:03:28;;;;;;;1.45;1.35;;;21.20;68.40;;;;;;5045442;28;20191;-62
2023/04/19 07:05:56;;;;;;;1.95;1.10;;;21.20;68.40;;;;;;5051778;28;20191;-62
2023/04/19 07:08:23;;;;;;;4.55;1.40;;;21.20;68.40;;;;;;5060400;28;20480;-59
2023/04/19 07:10:50;;;;;;;1.55;1.40;;;21.20;68.70;;;;;;5051287;28;21357;-60
2023/04/19 07:13:16;;;;;;;2.88;1.45;;;21.30;68.60;;;;;;5058717;28;20244;-59
2023/04/19 07:15:43;;;;;;;1.45;1.35;;;21.30;68.50;;;;;;5043761;28;20563;-64
2023/04/19 07:18:10;;;;;;;2.47;1.27;;;21.30;68.60;;;;;;5047929;28;20199;-65
2023/04/19 07:20:36;;;;;;;1.20;1.00;;;21.30;68.60;;;;;;5045736;28;20505;-61
2023/04/19 07:23:04;;;;;;;2.27;1.63;;;21.30;68.70;;;;;;5044711;28;20931;-61
2023/04/19 07:25:31;;;;;;;1.60;1.50;;;21.30;68.70;;;;;;5048747;28;20457;-61
2023/04/19 07:27:58;;;;;;;1.33;1.10;;;21.30;69.40;;;;;;5046402;28;20458;-60
2023/04/19 07:30:24;;;;;;;1.42;1.30;;;21.30;68.50;;;;;;5047936;28;20495;-60
2023/04/19 07:32:52;;;;;;;2.33;1.30;;;21.40;68.60;;;;;;5048744;28;20199;-60
2023/04/19 07:35:19;;;;;;;2.33;1.30;;;21.40;68.50;;;;;;5060998;28;20843;-59
2023/04/19 07:37:46;;;;;;;1.52;1.40;;;21.40;68.50;;;;;;5053092;28;20457;-60
2023/04/19 07:40:14;;;;;;;1.40;1.17;;;21.40;68.50;;;;;;5062495;28;20226;-62
2023/04/19 07:42:42;;;;;;;1.33;1.23;;;21.40;68.40;;;;;;5056577;28;20469;-60
2023/04/19 07:45:10;;;;;;;1.30;1.20;;;21.40;68.40;;;;;;5050853;28;20276;-60
2023/04/19 07:47:36;;;;;;;2.45;1.30;;;21.40;68.30;;;;;;5056747;28;20252;-59
2023/04/19 07:50:06;;;;;;;1.48;1.38;;;21.40;68.20;;;;;;5052921;28;20210;-63
2023/04/19 07:52:33;;;;;;;1.60;1.20;;;21.50;68.40;;;;;;5056962;28;20209;-61
2023/04/19 07:55:00;;;;;;;1.27;1.10;;;21.50;68.30;;;;;;5057021;28;20502;-60
2023/04/19 07:57:28;;;;;;;1.77;1.42;;;21.50;68.20;;;;;;5043429;28;20948;-61
2023/04/19 07:59:57;;;;;;;1.20;1.10;;;21.50;68.20;;;;;;5038206;28;20226;-61
2023/04/19 08:02:25;;;;;;;1.52;1.42;;;21.50;67.90;;;;;;5055109;28;20484;-65
2023/04/19 08:04:52;;;;;;;1.23;1.13;;;21.50;67.80;;;;;;5051483;28;20207;-63
2023/04/19 08:07:19;;;;;;;1.43;1.33;;;21.50;67.70;;;;;;5061714;28;20192;-60
2023/04/19 08:09:45;;;;;;;4.33;1.37;;;21.50;67.60;;;;;;5058903;28;20540;-62
2023/04/19 08:12:12;;;;;;;1.52;1.40;;;21.50;67.50;;;;;;5048764;28;20462;-59
2023/04/19 08:14:41;;;;;;;2.30;1.20;;;21.50;67.40;;;;;;5061662;28;20613;-61
2023/04/19 08:17:07;;;;;;;2.65;1.52;;;21.60;67.30;;;;;;5055925;28;20897;-64
2023/04/19 08:19:34;;;;;;;1.75;1.33;;;21.60;67.30;;;;;;5055377;28;20192;-59
2023/04/19 08:22:03;;;;;;;1.47;1.37;;;21.60;67.20;;;;;;5059042;28;20246;-60
2023/04/19 08:24:30;;;;;;;1.17;1.07;;;21.60;67.20;;;;;;5054447;28;20545;-63
2023/04/19 08:26:57;;;;;;;2.00;1.10;;;21.60;67.20;;;;;;5060242;28;20548;-59
2023/04/19 08:29:23;;;;;;;1.77;1.00;;;21.60;67.10;;;;;;5050507;28;20465;-62
2023/04/19 08:31:51;;;;;;;1.30;1.20;;;21.60;67.20;;;;;;5052016;28;20465;-62
2023/04/19 08:34:18;;;;;;;1.20;1.10;;;21.60;67.10;;;;;;5056759;28;20534;-60
2023/04/19 08:36:45;;;;;;;2.42;1.10;;;21.60;67.10;;;;;;5053700;28;20480;-59
2023/04/19 08:39:13;;;;;;;1.10;1.00;;;21.60;67.10;;;;;;5056796;28;20686;-60
2023/04/19 08:41:40;;;;;;;1.70;1.50;;;21.70;67.20;;;;;;5060763;28;20489;-60
2023/04/19 08:44:07;;;;;;;2.70;1.33;;;21.70;67.10;;;;;;5042149;28;20464;-63
2023/04/19 08:46:34;;;;;;;1.67;1.37;;;21.70;67.10;;;;;;5044076;28;20462;-61
2023/04/19 08:49:05;;;;;;;1.23;1.13;;;21.70;67.10;;;;;;5055485;28;20450;-59
2023/04/19 08:51:32;;;;;;;1.20;1.10;;;21.70;67.20;;;;;;5047883;28;20412;-60
2023/04/19 08:53:59;;;;;;;1.35;1.25;;;21.70;67.10;;;;;;5035654;28;20207;-64
2023/04/19 08:56:27;;;;;;;1.30;1.20;;;21.70;67.20;;;;;;5039937;28;20289;-64
2023/04/19 08:58:54;;;;;;;1.92;1.27;;;21.70;67.30;;;;;;5057935;28;20314;-60
2023/04/19 09:01:20;;;;;;;1.40;1.13;;;21.70;67.30;;;;;;5049340;28;20230;-60
2023/04/19 09:03:47;;;;;;;2.67;1.20;;;21.70;67.30;;;;;;5051378;28;20465;-60
2023/04/19 09:06:15;;;;;;;1.70;1.20;;;21.70;67.20;;;;;;5038541;28;22665;-62
2023/04/19 09:08:42;;;;;;;3.00;1.30;;;21.70;67.20;;;;;;5047274;28;20949;-60
2023/04/19 09:11:09;;;;;;;1.20;1.10;;;21.70;67.20;;;;;;5048752;28;20461;-58
2023/04/19 09:13:37;;;;;;;2.38;1.40;;;21.70;67.20;;;;;;5045317;28;20543;-60
2023/04/19 09:16:06;;;;;;;2.13;1.30;;;21.70;66.60;;;;;;5038365;28;20199;-62
2023/04/19 09:18:34;;;;;;;7.23;1.90;;;21.60;66.20;;;;;;5046487;28;20904;-54
2023/04/19 09:21:00;;;;;;;3.17;1.40;;;21.60;66.40;;;;;;5037871;28;20492;-64
2023/04/19 09:23:28;;;;;;;2.38;1.50;;;21.60;66.60;;;;;;5045484;28;21051;-57
2023/04/19 09:25:56;;;;;;;2.75;1.13;;;21.70;66.70;;;;;;5049732;28;20191;-58
2023/04/19 09:28:24;;;;;;;4.55;1.20;;;21.70;66.80;;;;;;5045864;28;20231;-57
2023/04/19 09:30:51;;;;;;;1.67;1.50;;;21.80;67.00;;;;;;5044205;28;20257;-61
2023/04/19 09:33:35;;;;;;;2.70;1.67;;;21.80;67.10;;;;;;5060225;28;20462;-60
2023/04/19 09:36:02;;;;;;;1.30;1.10;;;21.80;67.20;;;;;;5050236;28;20450;-55
2023/04/19 09:38:30;;;;;;;5.17;1.30;;;21.90;67.30;;;;;;5049068;28;20462;-56
2023/04/19 09:41:07;;;;;;;2.13;1.30;;;21.90;67.30;;;;;;5058831;28;20539;-53
2023/04/19 09:43:34;;;;;;;3.53;1.20;;;21.90;67.40;;;;;;5056414;28;20654;-59
2023/04/19 09:46:00;;;;;;;1.57;1.10;;;21.90;67.40;;;;;;5051149;28;20574;-64
2023/04/19 09:48:30;;;;;;;3.85;1.17;;;21.90;67.40;;;;;;5061478;28;20488;-56
2023/04/19 09:50:59;;;;;;;1.70;1.27;;;22.00;67.50;;;;;;5067329;28;20709;-59
2023/04/19 09:53:27;;;;;;;2.90;1.53;;;22.00;67.50;;;;;;5052322;28;20464;-63
2023/04/19 09:55:55;;;;;;;2.70;1.30;;;22.00;67.60;;;;;;5063549;28;20941;-57
2023/04/19 09:58:22;;;;;;;1.73;1.27;;;22.00;67.60;;;;;;5062005;28;20514;-56
2023/04/19 10:00:51;;;;;;;1.30;0.90;;;22.10;67.70;;;;;;5055004;28;20532;-58
2023/04/19 10:03:18;;;;;;;2.60;1.40;;;22.10;67.70;;;;;;5046461;28;20485;-59
2023/04/19 10:05:45;;;;;;;1.73;1.30;;;22.10;67.70;;;;;;5061068;28;20448;-52
2023/04/19 10:08:13;;;;;;;2.23;1.30;;;22.10;67.70;;;;;;5046774;28;20472;-61
2023/04/19 10:10:40;;;;;;;1.10;0.90;;;22.10;67.70;;;;;;5061478;28;20464;-55
2023/04/19 10:13:12;;;;;;;2.07;1.10;;;22.20;68.60;;;;;;5057785;28;20525;-57
2023/04/19 10:15:41;;;;;;;2.40;1.10;;;22.20;67.80;;;;;;5043786;28;20462;-62
2023/04/19 10:18:09;;;;;;;3.20;1.20;;;22.10;67.40;;;;;;5045588;28;21043;-56
2023/04/19 10:20:41;;;;;;;6.23;1.30;;;22.10;67.40;;;;;;5044485;28;20465;-55
2023/04/19 10:23:08;;;;;;;1.47;1.37;;;22.10;67.30;;;;;;5046557;28;20477;-54
2023/04/19 10:25:37;;;;;;;1.27;1.00;;;22.10;66.90;;;;;;5052873;28;20464;-54
2023/04/19 10:28:04;;;;;;;1.97;1.10;;;22.10;66.50;;;;;;5053335;28;20529;-49
2023/04/19 10:30:32;;;;;;;4.03;1.80;;;22.10;66.30;;;;;;5054656;28;20453;-59
2023/04/19 10:33:02;;;;;;;1.77;1.30;;;22.10;66.30;;;;;;5060759;28;20469;-58
2023/04/19 10:35:34;;;;;;;3.20;1.10;;;22.10;65.90;;;;;;5060335;28;20453;-59
2023/04/19 10:38:06;;;;;;;2.40;1.13;;;22.20;66.00;;;;;;5058379;28;20850;-64
2023/04/19 10:40:59;;;;;;;1.77;1.50;;;22.20;65.90;;;;;;5058682;28;20552;-64
2023/04/19 10:43:28;;;;;;;11.90;1.60;;;22.30;66.00;;;;;;5053505;28;20473;-59
2023/04/19 10:46:00;;;;;;;3.27;1.40;;;22.30;66.30;;;;;;5049729;28;20456;-52
2023/04/19 10:48:37;;;;;;;1.87;1.43;;;22.30;66.20;;;;;;5065748;28;20445;-62
2023/04/19 10:51:13;;;;;;;3.00;1.50;;;22.40;66.30;;;;;;5058514;28;20500;-58
2023/04/19 10:53:47;;;;;;;1.20;1.10;;;22.40;66.20;;;;;;5049609;28;20539;-61
2023/04/19 10:56:15;;;;;;;1.10;1.00;;;22.40;66.20;;;;;;5049049;28;20953;-56
2023/04/19 10:59:20;;;;;;;3.00;1.33;;;22.40;66.20;;;;;;5049409;28;20962;-57
2023/04/19 11:01:51;;;;;;;1.67;1.30;;;22.40;66.10;;;;;;5049438;28;20580;-53
2023/04/19 11:04:19;;;;;;;2.27;0.97;;;22.40;66.40;;;;;;5057766;28;20457;-62
2023/04/19 11:07:01;;;;;;;1.30;0.90;;;22.40;66.40;;;;;;5055485;28;20949;-64
2023/04/19 11:09:29;;;;;;;1.73;1.40;;;22.50;66.40;;;;;;5064828;28;20452;-64
2023/04/19 11:12:00;;;;;;;1.20;1.10;;;22.50;66.40;;;;;;5052533;28;20480;-64
2023/04/19 11:14:28;;;;;;;1.17;1.07;;;22.50;66.40;;;;;;5058068;28;20548;-64
2023/04/19 11:16:56;;;;;;;1.17;0.90;;;22.60;66.70;;;;;;5056312;28;20461;-55
2023/04/19 11:19:22;;;;;;;2.60;1.10;;;22.50;66.50;;;;;;5057922;28;20518;-60
2023/04/19 11:21:49;;;;;;;1.20;1.10;;;22.50;66.40;;;;;;5064726;28;20492;-52
2023/04/19 11:24:17;;;;;;;2.03;1.90;;;22.60;66.60;;;;;;5064100;28;20462;-50
2023/04/19 11:26:45;;;;;;;2.17;1.20;;;22.60;66.50;;;;;;5052600;28;21111;-50
2023/04/19 11:29:12;;;;;;;3.03;1.20;;;22.60;66.50;;;;;;5055317;28;20461;-53
2023/04/19 11:31:39;;;;;;;1.20;0.93;;;22.60;66.50;;;;;;5061002;28;20957;-55
2023/04/19 11:34:07;;;;;;;1.23;1.03;;;22.60;66.30;;;;;;5065387;28;20454;-55
2023/04/19 11:36:35;;;;;;;1.70;1.03;;;22.60;66.40;;;;;;5052103;28;20458;-56
2023/04/19 11:39:04;;;;;;;1.57;1.10;;;22.60;66.30;;;;;;5057354;28;20488;-64
2023/04/19 11:41:38;;;;;;;2.60;1.60;;;22.60;66.40;;;;;;5063608;28;20567;-54
2023/04/19 11:44:04;;;;;;;2.13;1.93;;;22.50;65.80;;;;;;5050532;28;20556;-51
2023/04/19 11:46:31;;;;;;;1.50;1.27;;;22.50;66.00;;;;;;5068310;28;20445;-48
2023/04/19 11:48:58;;;;;;;1.50;1.20;;;22.60;66.00;;;;;;5059045;28;21036;-52
2023/04/19 11:51:26;;;;;;;1.37;1.00;;;22.60;66.10;;;;;;5060863;28;20496;-46
2023/04/19 11:53:53;;;;;;;2.47;1.53;;;22.60;66.10;;;;;;5066463;28;20468;-52
2023/04/19 11:56:20;;;;;;;1.77;1.03;;;22.60;66.10;;;;;;5055012;28;20545;-53
2023/04/19 11:58:47;;;;;;;1.10;1.00;;;22.60;66.10;;;;;;5060326;28;20484;-56
2023/04/19 12:01:15;;;;;;;1.50;1.23;;;22.60;66.10;;;;;;5051201;28;20485;-60
2023/04/19 12:03:45;;;;;;;1.90;1.10;;;22.60;66.00;;;;;;5065150;28;20969;-57
2023/04/19 12:06:14;;;;;;;1.10;0.93;;;22.70;66.10;;;;;;5059366;28;20460;-62
2023/04/19 12:08:48;;;;;;;1.50;1.10;;;22.60;66.00;;;;;;5048583;28;21221;-54
2023/04/19 12:11:17;;;;;;;1.73;1.50;;;22.60;66.00;;;;;;5053055;28;20475;-59
2023/04/19 12:13:44;;;;;;;4.13;1.27;;;22.60;65.60;;;;;;5050619;28;20464;-65
2023/04/19 12:16:11;;;;;;;2.13;1.00;;;22.60;65.70;;;;;;5053431;28;20461;-62
2023/04/19 12:18:47;;;;;;;4.40;1.57;;;22.60;65.70;;;;;;5053772;28;20465;-61
2023/04/19 12:21:27;;;;;;;2.03;1.10;;;22.70;65.80;;;;;;5047651;28;20461;-61
2023/04/19 12:23:56;;;;;;;1.87;1.20;;;22.70;65.90;;;;;;5057851;28;20502;-57
2023/04/19 12:26:23;;;;;;;2.40;1.10;;;22.70;65.90;;;;;;5051213;28;20467;-54
2023/04/19 12:28:50;;;;;;;1.20;1.00;;;22.70;65.90;;;;;;5050070;28;20469;-59
2023/04/19 12:31:16;;;;;;;1.20;1.00;;;22.70;65.90;;;;;;5050227;28;20472;-58
2023/04/19 12:33:43;;;;;;;1.20;1.00;;;22.70;65.90;;;;;;5058246;28;20461;-50
2023/04/19 12:36:10;;;;;;;1.73;1.10;;;22.70;66.00;;;;;;5054684;28;20457;-49
2023/04/19 12:38:36;;;;;;;1.23;0.97;;;22.70;66.00;;;;;;5054816;28;20514;-59
2023/04/19 12:41:05;;;;;;;1.20;1.00;;;22.70;65.90;;;;;;5058182;28;20885;-54
2023/04/19 12:43:32;;;;;;;5.70;1.27;;;22.70;66.00;;;;;;5055793;28;20458;-61
2023/04/19 12:45:58;;;;;;;1.50;1.00;;;22.70;66.10;;;;;;5058309;28;20468;-58
2023/04/19 12:48:25;;;;;;;1.70;1.27;;;22.70;66.00;;;;;;5054766;28;20462;-52
2023/04/19 12:50:52;;;;;;;1.23;1.10;;;22.80;66.00;;;;;;5051004;28;20683;-59